Time;durP1;ratioP1;P1;durP2;ratioP2;P2;SDS_P1;SDS_P2;PMS_P1;PMS_P2;Temp;Humidity;BMP_temperature;BMP_pressure;BME280_temperature;BME280_humidity;BME280_pressure;Samples;Min_cycle;Max_cycle;Signal;HPM_P1;HPM_P2
2022/06/01 00:02:28;;;;;;;1.07;0.97;;;;;;;17.65;nan;93778.59;4997457;28;20207;-86
2022/06/01 00:05:13;;;;;;;0.80;0.70;;;;;;;17.60;nan;93771.25;5028865;28;20281;-92
2022/06/01 00:07:57;;;;;;;1.53;1.00;;;;;;;18.05;nan;93783.13;5017571;28;20189;-92
2022/06/01 00:10:40;;;;;;;1.50;1.17;;;;;;;17.55;nan;93783.78;4996404;28;20283;-91
2022/06/01 00:13:26;;;;;;;1.40;1.10;;;;;;;17.73;nan;93793.09;4997212;28;20761;-93
2022/06/01 00:16:10;;;;;;;1.90;1.03;;;;;;;17.74;nan;93786.78;5029608;28;20265;-92
2022/06/01 00:18:54;;;;;;;0.93;0.93;;;;;;;17.67;nan;93781.50;4995115;28;20679;-93
2022/06/01 00:22:11;;;;;;;0.80;0.80;;;;;;;17.85;nan;93790.78;5012492;28;20286;-94
2022/06/01 00:24:45;;;;;;;0.90;0.90;;;;;;;17.66;nan;93785.69;5030003;28;20205;-91
2022/06/01 00:27:31;;;;;;;2.43;1.20;;;;;;;17.50;nan;93785.72;5012716;28;20206;-93
2022/06/01 00:30:16;;;;;;;1.30;1.20;;;;;;;17.96;nan;93789.81;5012362;28;20251;-93
2022/06/01 00:33:00;;;;;;;1.67;1.07;;;;;;;17.97;nan;93796.22;5016428;28;20229;-93
2022/06/01 00:35:44;;;;;;;1.83;1.17;;;;;;;17.82;nan;93786.41;5015896;28;20257;-93
2022/06/01 00:38:29;;;;;;;1.40;1.30;;;;;;;17.83;nan;93782.19;5009571;28;20280;-94
2022/06/01 00:41:12;;;;;;;3.87;1.40;;;;;;;17.69;nan;93792.94;5002682;28;20226;-93
2022/06/01 00:43:56;;;;;;;1.20;1.10;;;;;;;17.73;nan;93788.16;5034114;28;20201;-93
2022/06/01 00:46:40;;;;;;;1.40;1.30;;;;;;;17.61;nan;93793.31;5006330;28;20268;-93
2022/06/01 00:49:26;;;;;;;1.83;1.50;;;;;;;17.76;nan;93794.66;5010651;28;20879;-93
2022/06/01 00:52:12;;;;;;;1.57;1.47;;;;;;;17.44;nan;93793.22;5012771;28;20230;-90
2022/06/01 00:54:56;;;;;;;1.30;1.20;;;;;;;17.28;nan;93793.25;5033934;28;20210;-91
2022/06/01 00:57:41;;;;;;;1.70;1.23;;;;;;;17.32;nan;93788.50;5035372;28;20717;-93
2022/06/01 01:00:32;;;;;;;1.03;1.03;;;;;;;17.31;nan;93786.28;5019295;28;20213;-93
2022/06/01 01:03:17;;;;;;;1.43;1.33;;;;;;;17.36;nan;93783.00;5014943;28;20206;-93
2022/06/01 01:06:23;;;;;;;1.13;1.10;;;;;;;17.46;nan;93779.16;5013320;28;20372;-93
2022/06/01 01:09:08;;;;;;;2.60;1.60;;;;;;;17.25;nan;93777.53;5011730;28;20658;-90
2022/06/01 01:11:56;;;;;;;1.67;1.20;;;;;;;17.60;nan;93777.69;4981280;28;20388;-94
2022/06/01 01:14:43;;;;;;;2.10;1.40;;;;;;;17.47;nan;93780.59;4992891;28;20198;-92
2022/06/01 01:17:27;;;;;;;1.57;1.40;;;;;;;17.91;nan;93781.78;4987699;28;20675;-93
2022/06/01 01:20:13;;;;;;;1.40;1.30;;;;;;;17.79;nan;93782.00;5011567;28;20675;-89
2022/06/01 01:23:06;;;;;;;1.93;1.30;;;;;;;17.17;nan;93783.56;4996143;28;20202;-92
2022/06/01 01:25:52;;;;;;;2.17;1.40;;;;;;;17.46;nan;93782.00;5010637;28;20378;-89
2022/06/01 01:28:36;;;;;;;3.27;1.50;;;;;;;17.64;nan;93788.47;5015247;28;20203;-94
2022/06/01 01:31:22;;;;;;;1.50;1.40;;;;;;;17.40;nan;93783.16;5000308;28;20223;-93
2022/06/01 01:34:09;;;;;;;1.60;1.50;;;;;;;17.45;nan;93789.03;4996075;28;20257;-94
2022/06/01 01:36:59;;;;;;;1.33;1.23;;;;;;;17.47;nan;93786.25;5012853;28;20198;-91
2022/06/01 01:39:43;;;;;;;2.43;1.40;;;;;;;17.67;nan;93787.16;5008053;28;20404;-93
2022/06/01 01:42:28;;;;;;;2.00;1.60;;;;;;;17.63;nan;93792.66;5012881;28;20259;-93
2022/06/01 01:45:27;;;;;;;3.73;1.70;;;;;;;17.38;nan;93797.25;5009530;28;20274;-94
2022/06/01 01:48:12;;;;;;;2.10;1.30;;;;;;;17.32;nan;93788.50;5014508;28;20202;-94
2022/06/01 01:50:56;;;;;;;2.43;1.53;;;;;;;17.32;nan;93787.75;4999574;28;20289;-92
2022/06/01 01:53:41;;;;;;;2.20;2.00;;;;;;;17.34;nan;93785.72;5001261;28;20199;-93
2022/06/01 01:56:43;;;;;;;2.67;1.80;;;;;;;17.51;nan;93787.19;5010795;28;20271;-93
2022/06/01 01:59:33;;;;;;;3.37;1.93;;;;;;;17.88;nan;93789.50;5004610;28;20207;-93
2022/06/01 02:02:29;;;;;;;2.10;2.00;;;;;;;17.53;nan;93789.38;4999343;28;20207;-92
2022/06/01 02:08:46;;;;;;;1.43;1.37;;;;;;;17.43;nan;93789.66;5013361;28;20202;-92
2022/06/01 02:14:51;;;;;;;1.73;1.63;;;;;;;18.06;nan;93786.69;5029160;28;20260;-94
2022/06/01 02:17:48;;;;;;;3.33;1.93;;;;;;;18.00;nan;93789.28;5031085;28;20217;-94
2022/06/01 02:20:45;;;;;;;2.03;1.50;;;;;;;17.88;nan;93775.31;5013839;28;20346;-93
2022/06/01 02:23:31;;;;;;;4.43;2.07;;;;;;;17.94;nan;93783.34;5005404;28;20245;-94
2022/06/01 02:26:17;;;;;;;2.77;2.00;;;;;;;17.68;nan;93771.63;5034669;28;20226;-94
2022/06/01 02:29:11;;;;;;;4.23;2.13;;;;;;;17.64;nan;93768.63;5032601;28;20655;-94
2022/06/01 02:31:57;;;;;;;2.30;2.10;;;;;;;17.63;nan;93770.00;5022514;28;20202;-93
2022/06/01 02:34:43;;;;;;;3.70;2.30;;;;;;;17.48;nan;93770.72;5014390;28;20214;-94
2022/06/01 02:37:29;;;;;;;5.67;2.57;;;;;;;17.30;nan;93768.56;5022543;28;20206;-93
2022/06/01 02:40:18;;;;;;;2.73;2.20;;;;;;;17.23;nan;93766.09;5024229;28;20260;-93
2022/06/01 02:43:03;;;;;;;3.10;2.70;;;;;;;17.03;nan;93768.06;5033801;28;20317;-93
2022/06/01 02:45:47;;;;;;;2.53;2.33;;;;;;;17.17;nan;93760.91;5003077;28;20986;-93
2022/06/01 02:48:31;;;;;;;2.87;2.50;;;;;;;17.22;nan;93768.22;5007230;28;20210;-94
2022/06/01 02:51:17;;;;;;;3.83;2.80;;;;;;;17.28;nan;93774.13;5003859;28;20213;-93
2022/06/01 02:54:02;;;;;;;3.67;2.80;;;;;;;17.40;nan;93771.13;5001098;28;20206;-93
2022/06/01 02:56:47;;;;;;;3.13;2.50;;;;;;;17.17;nan;93774.34;5013638;28;20269;-93
2022/06/01 02:59:32;;;;;;;3.83;2.43;;;;;;;17.29;nan;93772.78;5017779;28;20206;-93
2022/06/01 03:02:17;;;;;;;4.47;2.80;;;;;;;17.46;nan;93770.66;5016898;28;20198;-93
2022/06/01 03:05:02;;;;;;;3.90;2.57;;;;;;;17.11;nan;93774.78;5003617;28;20221;-93
2022/06/01 03:07:46;;;;;;;2.40;2.20;;;;;;;17.51;nan;93783.63;5011561;28;20577;-93
2022/06/01 03:10:32;;;;;;;2.57;2.27;;;;;;;17.52;nan;93782.25;5012515;28;20209;-93
2022/06/01 03:13:18;;;;;;;2.40;2.10;;;;;;;17.58;nan;93785.34;5011644;28;20369;-93
2022/06/01 03:16:02;;;;;;;2.23;1.90;;;;;;;17.29;nan;93784.09;5009825;28;20307;-92
2022/06/01 03:18:46;;;;;;;2.87;2.00;;;;;;;17.92;nan;93786.81;5013855;28;20214;-94
2022/06/01 03:21:30;;;;;;;2.27;2.07;;;;;;;17.83;nan;93787.13;5003813;28;20229;-93
2022/06/01 03:24:14;;;;;;;5.13;2.23;;;;;;;18.02;nan;93787.22;5014976;28;20205;-93
2022/06/01 03:26:59;;;;;;;2.80;1.70;;;;;;;17.97;nan;93779.94;5015302;28;20594;-93
2022/06/01 03:29:44;;;;;;;2.50;1.80;;;;;;;18.01;nan;93794.31;5012455;28;20279;-93
2022/06/01 03:32:28;;;;;;;1.67;1.50;;;;;;;17.96;nan;93789.09;5002828;28;20292;-93
2022/06/01 03:35:15;;;;;;;1.93;1.83;;;;;;;18.07;nan;93794.56;5013141;28;20243;-94
2022/06/01 03:37:59;;;;;;;1.87;1.50;;;;;;;18.21;nan;93785.88;5031625;28;20201;-93
2022/06/01 03:40:43;;;;;;;3.20;2.00;;;;;;;18.05;nan;93785.22;5012865;28;20717;-92
2022/06/01 03:43:29;;;;;;;1.80;1.70;;;;;;;17.80;nan;93783.47;5020443;28;20209;-94
2022/06/01 03:46:13;;;;;;;1.77;1.67;;;;;;;18.15;nan;93794.13;5012494;28;20237;-93
2022/06/01 03:48:57;;;;;;;5.43;1.63;;;;;;;18.51;nan;93794.91;5013629;28;20214;-92
2022/06/01 03:51:41;;;;;;;2.07;1.80;;;;;;;18.56;nan;93802.22;5003027;28;20221;-89
2022/06/01 03:54:27;;;;;;;3.80;1.80;;;;;;;18.22;nan;93803.63;5018523;28;20205;-93
2022/06/01 03:57:12;;;;;;;2.17;1.50;;;;;;;18.24;nan;93801.59;5008767;28;20201;-94
2022/06/01 03:59:57;;;;;;;2.63;1.50;;;;;;;18.65;nan;93798.31;5019724;28;20214;-91
2022/06/01 04:02:42;;;;;;;3.43;1.80;;;;;;;18.44;nan;93801.69;5001741;28;20678;-89
2022/06/01 04:05:26;;;;;;;1.70;1.60;;;;;;;18.93;nan;93802.25;5011149;28;20207;-93
2022/06/01 04:08:11;;;;;;;1.90;1.70;;;;;;;18.82;nan;93794.72;4997019;28;20226;-93
2022/06/01 04:10:55;;;;;;;2.17;1.70;;;;;;;19.24;nan;93803.41;4988317;28;20272;-93
2022/06/01 04:13:38;;;;;;;2.90;1.33;;;;;;;19.36;nan;93803.84;4982438;28;20250;-93
2022/06/01 04:16:22;;;;;;;1.93;1.40;;;;;;;19.33;nan;93813.66;4999766;28;20203;-93
2022/06/01 04:19:06;;;;;;;2.23;1.37;;;;;;;18.97;nan;93819.44;5012661;28;20269;-93
2022/06/01 04:21:53;;;;;;;2.53;1.57;;;;;;;19.12;nan;93819.97;4980740;28;20227;-88
2022/06/01 04:24:37;;;;;;;2.37;2.13;;;;;;;19.39;nan;93825.25;5008582;28;20203;-92
2022/06/01 04:27:22;;;;;;;2.53;1.73;;;;;;;19.15;nan;93825.06;4980599;28;20222;-93
2022/06/01 04:30:09;;;;;;;2.80;1.37;;;;;;;19.53;nan;93825.81;5011005;28;20271;-92
2022/06/01 04:32:55;;;;;;;1.83;1.37;;;;;;;19.63;nan;93819.75;4997426;28;20595;-92
2022/06/01 04:35:39;;;;;;;1.50;1.30;;;;;;;19.76;nan;93822.38;5015615;28;20199;-93
2022/06/01 04:38:23;;;;;;;1.50;1.40;;;;;;;20.19;nan;93826.69;4985419;28;20252;-92
2022/06/01 04:41:07;;;;;;;1.80;1.60;;;;;;;19.96;nan;93815.94;4995361;28;20226;-93
2022/06/01 04:43:52;;;;;;;1.97;1.27;;;;;;;20.37;nan;93827.31;4982090;28;20290;-93
2022/06/01 04:46:37;;;;;;;4.97;1.53;;;;;;;20.04;nan;93827.59;4991448;28;20226;-93
2022/06/01 04:49:21;;;;;;;1.87;1.50;;;;;;;19.90;nan;93819.28;5013777;28;20198;-91
2022/06/01 04:52:06;;;;;;;1.60;1.33;;;;;;;20.34;nan;93825.81;4997239;28;20205;-93
2022/06/01 04:54:51;;;;;;;1.87;1.70;;;;;;;20.73;nan;93830.66;5010936;28;20214;-92
2022/06/01 04:57:36;;;;;;;2.27;1.30;;;;;;;20.89;nan;93819.03;4987125;28;20179;-92
2022/06/01 05:00:23;;;;;;;1.70;1.20;;;;;;;20.73;nan;93829.91;4981858;28;20261;-92
2022/06/01 05:03:08;;;;;;;1.83;1.30;;;;;;;20.25;nan;93824.03;5001992;28;20245;-93
2022/06/01 05:05:53;;;;;;;1.90;1.37;;;;;;;20.66;nan;93823.28;5018962;28;20284;-93
2022/06/01 05:08:39;;;;;;;2.60;1.20;;;;;;;20.27;nan;93821.28;5017808;28;20270;-92
2022/06/01 05:11:24;;;;;;;14.13;1.70;;;;;;;20.59;nan;93828.06;5007712;28;20206;-93
2022/06/01 05:14:09;;;;;;;1.77;1.13;;;;;;;20.22;nan;93819.69;5018004;28;20297;-92
2022/06/01 05:16:58;;;;;;;1.17;1.07;;;;;;;20.61;nan;93829.53;5018174;28;20703;-91
2022/06/01 05:19:44;;;;;;;1.70;1.10;;;;;;;20.55;nan;93822.22;5004905;28;20202;-91
2022/06/01 05:22:28;;;;;;;2.23;1.33;;;;;;;20.60;nan;93828.78;5002632;28;20203;-92
2022/06/01 05:25:12;;;;;;;2.93;1.60;;;;;;;20.99;nan;93822.16;4995353;28;20368;-91
2022/06/01 05:27:56;;;;;;;1.43;1.30;;;;;;;20.81;nan;93830.16;5002218;28;20198;-92
2022/06/01 05:30:40;;;;;;;1.63;1.30;;;;;;;20.80;nan;93840.09;5007892;28;20321;-90
2022/06/01 05:33:24;;;;;;;2.63;1.53;;;;;;;20.92;nan;93834.78;4980258;28;20203;-92
2022/06/01 05:36:12;;;;;;;2.53;0.97;;;;;;;21.16;nan;93829.88;5011546;28;20559;-90
2022/06/01 05:38:56;;;;;;;9.53;1.77;;;;;;;21.65;nan;93837.00;4986791;28;20290;-90
2022/06/01 05:41:40;;;;;;;2.13;1.20;;;;;;;21.62;nan;93841.19;5000107;28;20302;-92
2022/06/01 05:44:24;;;;;;;1.97;1.17;;;;;;;21.33;nan;93837.50;4985389;28;20198;-91
2022/06/01 05:47:09;;;;;;;1.47;1.20;;;;;;;22.12;nan;93836.19;4999698;28;20638;-91
2022/06/01 05:49:52;;;;;;;1.40;1.10;;;;;;;22.02;nan;93836.66;4999554;28;20346;-90
2022/06/01 05:52:38;;;;;;;1.83;1.57;;;;;;;22.29;nan;93843.03;5009015;28;20275;-87
2022/06/01 05:55:22;;;;;;;1.40;1.10;;;;;;;22.09;nan;93831.81;4996814;28;20628;-92
2022/06/01 05:58:21;;;;;;;4.23;1.43;;;;;;;22.05;nan;93837.41;4998302;28;20207;-91
2022/06/01 06:01:07;;;;;;;2.80;1.40;;;;;;;22.10;nan;93833.97;4985641;28;20202;-91
2022/06/01 06:03:51;;;;;;;2.10;1.40;;;;;;;21.56;nan;93841.00;5025591;28;20213;-85
2022/06/01 06:06:35;;;;;;;2.40;1.10;;;;;;;21.83;nan;93846.06;5018936;28;20591;-90
2022/06/01 06:09:24;;;;;;;1.33;1.23;;;;;;;20.97;nan;93842.06;5018104;28;20210;-87
2022/06/01 06:12:08;;;;;;;1.57;1.47;;;;;;;21.52;nan;93840.88;5025868;28;20731;-91
2022/06/01 06:14:52;;;;;;;1.77;1.40;;;;;;;21.35;nan;93840.41;4989923;28;20726;-91
2022/06/01 06:17:36;;;;;;;3.87;1.40;;;;;;;20.97;nan;93836.38;5008508;28;20796;-89
2022/06/01 06:20:20;;;;;;;7.97;1.60;;;;;;;21.37;nan;93831.19;5018268;28;20674;-91
2022/06/01 06:23:05;;;;;;;3.13;1.40;;;;;;;21.54;nan;93838.09;5026996;28;20229;-90
2022/06/01 06:25:49;;;;;;;3.67;1.70;;;;;;;21.13;nan;93842.56;5033710;28;20273;-90
2022/06/01 06:28:33;;;;;;;4.93;1.47;;;;;;;21.71;nan;93840.03;5011481;28;20285;-92
2022/06/01 06:31:17;;;;;;;4.90;1.93;;;;;;;21.35;nan;93845.41;5012866;28;20199;-91
2022/06/01 06:34:01;;;;;;;2.80;1.60;;;;;;;22.03;nan;93852.38;5016613;28;20267;-91
2022/06/01 06:36:45;;;;;;;1.73;1.63;;;;;;;21.85;nan;93848.97;5005275;28;20249;-85
2022/06/01 06:39:29;;;;;;;3.00;1.50;;;;;;;21.94;nan;93849.91;5021592;28;20198;-91
2022/06/01 06:42:13;;;;;;;4.00;1.73;;;;;;;22.22;nan;93850.00;5002970;28;20210;-91
2022/06/01 06:44:57;;;;;;;2.63;1.57;;;;;;;22.39;nan;93851.88;5005088;28;20203;-90
2022/06/01 06:47:42;;;;;;;4.33;1.47;;;;;;;22.04;nan;93853.81;5018227;28;20316;-88
2022/06/01 06:50:26;;;;;;;2.37;1.53;;;;;;;22.56;nan;93850.88;5018323;28;20310;-89
2022/06/01 06:53:11;;;;;;;3.63;1.60;;;;;;;22.44;nan;93856.28;5013757;28;20260;-91
2022/06/01 06:55:56;;;;;;;2.40;1.40;;;;;;;22.15;nan;93841.28;5003623;28;20209;-90
2022/06/01 06:58:40;;;;;;;3.30;1.50;;;;;;;22.99;nan;93841.97;5003674;28;20214;-91
2022/06/01 07:01:25;;;;;;;3.10;1.37;;;;;;;23.32;nan;93842.72;5015700;28;20214;-87
2022/06/01 07:04:09;;;;;;;1.70;1.43;;;;;;;23.59;nan;93847.63;5005907;28;20229;-91
2022/06/01 07:06:55;;;;;;;3.97;1.40;;;;;;;23.45;nan;93847.31;5029297;28;20715;-90
2022/06/01 07:09:39;;;;;;;3.37;1.37;;;;;;;23.26;nan;93839.72;5032644;28;20202;-90
2022/06/01 07:12:23;;;;;;;2.70;1.40;;;;;;;23.99;nan;93841.28;4992496;28;20277;-91
2022/06/01 07:15:07;;;;;;;3.07;1.40;;;;;;;24.55;nan;93841.66;5008173;28;20209;-91
2022/06/01 07:17:52;;;;;;;2.72;1.23;;;;;;;24.36;nan;93837.72;5003833;28;20190;-90
2022/06/01 07:20:36;;;;;;;3.72;1.60;;;;;;;24.96;nan;93834.47;5004130;28;20480;-89
2022/06/01 07:23:19;;;;;;;3.22;1.80;;;;;;;25.43;nan;93835.19;5003079;28;20198;-91
2022/06/01 07:26:07;;;;;;;2.25;1.75;;;;;;;25.45;nan;93832.34;5032405;28;20238;-90
2022/06/01 07:28:51;;;;;;;2.75;1.50;;;;;;;25.77;nan;93832.81;5013571;28;20201;-91
2022/06/01 07:31:38;;;;;;;2.45;1.40;;;;;;;25.95;nan;93835.91;5016547;28;20206;-91
2022/06/01 07:34:23;;;;;;;1.95;1.20;;;;;;;26.11;nan;93847.56;5032356;28;20618;-89
2022/06/01 07:43:20;;;;;;;4.72;1.40;;;;;;;26.75;nan;93835.34;5029722;28;20694;-91
2022/06/01 07:46:05;;;;;;;4.13;1.40;;;;;;;26.09;nan;93833.19;5032963;28;20226;-87
2022/06/01 07:48:52;;;;;;;1.30;1.20;;;;;;;27.03;nan;93834.91;5014772;28;20290;-92
2022/06/01 07:51:38;;;;;;;1.73;1.40;;;;;;;27.35;nan;93831.50;5027884;28;20345;-90
2022/06/01 07:54:22;;;;;;;2.50;1.42;;;;;;;27.91;nan;93833.28;5021465;28;20250;-91
2022/06/01 07:57:06;;;;;;;2.20;1.20;;;;;;;29.26;nan;93836.50;5033280;28;20202;-89
2022/06/01 07:59:53;;;;;;;2.53;1.42;;;;;;;29.02;nan;93839.38;5013805;28;20197;-89
2022/06/01 08:02:39;;;;;;;2.17;1.25;;;;;;;29.93;nan;93827.78;5014959;28;20276;-91
2022/06/01 08:05:23;;;;;;;3.28;1.67;;;;;;;28.60;nan;93830.66;5008609;28;20205;-90
2022/06/01 08:08:08;;;;;;;2.28;1.27;;;;;;;28.14;nan;93834.88;5006485;28;20211;-90
2022/06/01 08:10:52;;;;;;;4.32;1.30;;;;;;;29.05;nan;93828.56;4995445;28;20868;-91
2022/06/01 08:13:37;;;;;;;3.83;1.33;;;;;;;28.33;nan;93833.47;4972895;28;20227;-87
2022/06/01 08:16:21;;;;;;;2.58;1.25;;;;;;;29.02;nan;93832.88;4997114;28;20206;-90
2022/06/01 08:19:06;;;;;;;2.58;1.25;;;;;;;30.40;nan;93827.56;4998786;28;20206;-91
2022/06/01 08:21:50;;;;;;;1.92;1.00;;;;;;;30.05;nan;93821.94;4991014;28;20821;-91
2022/06/01 08:24:34;;;;;;;2.17;1.25;;;;;;;31.31;nan;93838.56;4997281;28;20199;-92
2022/06/01 08:27:19;;;;;;;4.00;1.20;;;;;;;31.24;nan;93834.28;4993261;28;20231;-90
2022/06/01 08:30:04;;;;;;;3.00;1.00;;;;;;;30.76;nan;93836.06;5026364;28;20718;-89
2022/06/01 08:32:51;;;;;;;2.40;1.33;;;;;;;30.73;nan;93840.44;4986044;28;20195;-89
2022/06/01 08:35:38;;;;;;;2.78;1.02;;;;;;;29.52;nan;93826.38;4992823;28;20257;-90
2022/06/01 08:38:23;;;;;;;2.13;1.20;;;;;;;30.13;nan;93821.91;5010732;28;20202;-90
2022/06/01 08:41:13;;;;;;;2.17;1.02;;;;;;;30.29;nan;93826.19;5001668;28;20285;-90
2022/06/01 08:44:03;;;;;;;1.98;1.17;;;;;;;30.53;nan;93826.06;5008946;28;20249;-91
2022/06/01 08:46:47;;;;;;;2.83;1.30;;;;;;;30.75;nan;93828.81;5011259;28;20325;-90
2022/06/01 08:49:33;;;;;;;2.53;1.58;;;;;;;29.82;nan;93823.44;4997324;28;20261;-87
2022/06/01 08:52:21;;;;;;;2.28;1.15;;;;;;;30.73;nan;93825.97;5016763;28;20572;-91
2022/06/01 08:55:06;;;;;;;3.40;0.98;;;;;;;31.53;nan;93831.88;4995089;28;20207;-90
2022/06/01 08:58:01;;;;;;;5.25;0.82;;;;;;;30.34;nan;93821.81;4997431;28;20619;-89
2022/06/01 09:00:57;;;;;;;3.03;1.42;;;;;;;30.45;nan;93818.13;5013811;28;20505;-90
2022/06/01 09:04:00;;;;;;;2.63;1.35;;;;;;;31.18;nan;93814.78;5003881;28;20575;-91
2022/06/01 09:07:09;;;;;;;3.80;1.10;;;;;;;32.09;nan;93816.06;5036370;28;20754;-90
2022/06/01 09:10:51;;;;;;;4.75;1.10;;;;;;;32.96;nan;93809.13;5006969;28;20206;-91
2022/06/01 09:14:04;;;;;;;1.42;0.88;;;;;;;32.61;nan;93820.50;4938753;29;20242;-88
2022/06/01 09:16:55;;;;;;;2.50;0.85;;;;;;;31.94;nan;93824.22;4937639;28;20321;-90
2022/06/01 09:22:45;;;;;;;1.13;1.00;;;;;;;30.30;nan;93822.56;5028998;28;20574;-90
2022/06/01 09:25:32;;;;;;;2.50;1.00;;;;;;;30.07;nan;93827.69;5013122;28;20206;-91
2022/06/01 09:28:24;;;;;;;4.22;0.98;;;;;;;31.00;nan;93832.28;5032816;28;20260;-91
2022/06/01 09:31:22;;;;;;;2.15;1.17;;;;;;;30.95;nan;93828.69;5028774;28;20203;-91
2022/06/01 09:34:25;;;;;;;5.75;0.88;;;;;;;32.82;nan;93820.97;5019854;28;20702;-92
2022/06/01 09:37:22;;;;;;;4.05;1.00;;;;;;;32.30;nan;93834.69;5034936;28;20206;-91
2022/06/01 09:40:25;;;;;;;1.02;0.77;;;;;;;31.27;nan;93835.72;5032526;28;20647;-91
2022/06/01 09:43:23;;;;;;;1.73;1.05;;;;;;;33.03;nan;93827.88;5002403;28;20340;-91
2022/06/01 09:46:08;;;;;;;1.75;1.15;;;;;;;31.96;nan;93837.97;5032672;28;20226;-91
2022/06/01 09:48:52;;;;;;;4.55;1.00;;;;;;;31.58;nan;93833.97;5019645;28;20260;-87
2022/06/01 09:51:41;;;;;;;1.17;0.93;;;;;;;31.43;nan;93835.56;5018795;28;20202;-90
2022/06/01 09:54:29;;;;;;;5.82;1.00;;;;;;;31.31;nan;93832.78;5016226;28;20198;-90
2022/06/01 09:57:23;;;;;;;5.35;1.20;;;;;;;30.92;nan;93833.03;5019262;28;20198;-90
2022/06/01 10:06:57;;;;;;;1.70;0.93;;;;;;;30.94;nan;93847.50;5011980;28;20362;-90
2022/06/01 10:10:00;;;;;;;1.40;0.73;;;;;;;32.43;nan;93841.75;4997667;28;20199;-85
2022/06/01 10:12:50;;;;;;;2.05;0.82;;;;;;;33.17;nan;93835.66;5011865;28;20282;-90
2022/06/01 10:15:40;;;;;;;1.48;0.98;;;;;;;32.81;nan;93843.47;4991490;28;20234;-89
2022/06/01 10:18:29;;;;;;;1.58;1.10;;;;;;;32.97;nan;93835.97;5016528;28;20203;-91
2022/06/01 10:21:18;;;;;;;1.88;1.25;;;;;;;31.95;nan;93842.31;5001606;28;20202;-89
2022/06/01 10:24:16;;;;;;;4.80;1.17;;;;;;;32.57;nan;93837.25;4998422;28;20330;-88
2022/06/01 10:27:02;;;;;;;2.05;1.00;;;;;;;33.46;nan;93838.84;5012663;28;20262;-89
2022/06/01 10:30:06;;;;;;;2.97;1.17;;;;;;;32.69;nan;93849.44;5010297;28;20262;-85
2022/06/01 10:33:30;;;;;;;4.80;1.25;;;;;;;33.74;nan;93835.47;5013233;28;20274;-87
2022/06/01 10:36:19;;;;;;;3.53;1.17;;;;;;;33.52;nan;93833.63;4997326;28;20219;-89
2022/06/01 10:39:10;;;;;;;3.58;1.10;;;;;;;32.76;nan;93847.16;5010303;28;20672;-86
2022/06/01 10:42:04;;;;;;;2.88;0.90;;;;;;;31.82;nan;93852.59;5022118;28;20210;-84
2022/06/01 10:45:13;;;;;;;3.13;1.25;;;;;;;32.15;nan;93836.31;4994708;28;20204;-88
2022/06/01 10:48:03;;;;;;;4.05;1.20;;;;;;;33.18;nan;93837.09;5010407;28;20231;-90
2022/06/01 10:50:52;;;;;;;1.63;1.15;;;;;;;33.19;nan;93845.09;4989577;28;20414;-88
2022/06/01 10:54:00;;;;;;;3.70;0.85;;;;;;;32.39;nan;93847.63;5016906;28;20210;-89
2022/06/01 10:56:46;;;;;;;4.70;1.17;;;;;;;32.98;nan;93834.50;5010305;28;20199;-90
2022/06/01 10:59:30;;;;;;;1.13;0.82;;;;;;;33.33;nan;93846.34;5006214;28;20222;-90
2022/06/01 11:02:24;;;;;;;1.48;1.00;;;;;;;33.16;nan;93840.75;4994820;28;20282;-89
2022/06/01 11:05:20;;;;;;;2.13;0.90;;;;;;;33.64;nan;93838.53;5017099;28;20263;-90
2022/06/01 11:08:13;;;;;;;3.25;1.40;;;;;;;33.23;nan;93839.22;5029493;28;20205;-90
2022/06/01 11:11:05;;;;;;;2.28;1.00;;;;;;;31.64;nan;93833.94;5004142;28;20206;-90
2022/06/01 11:14:09;;;;;;;1.50;0.90;;;;;;;31.61;nan;93829.63;5015565;28;20194;-89
2022/06/01 11:16:58;;;;;;;1.50;0.85;;;;;;;32.40;nan;93843.28;5013654;28;20278;-91
2022/06/01 11:19:48;;;;;;;1.45;0.82;;;;;;;30.98;nan;93832.31;5025752;28;20211;-88
2022/06/01 11:22:45;;;;;;;1.23;0.95;;;;;;;32.89;nan;93825.22;5029382;28;20214;-90
2022/06/01 11:25:45;;;;;;;2.38;1.20;;;;;;;33.39;nan;93820.09;4996372;28;20199;-87
2022/06/01 11:28:55;;;;;;;2.92;0.93;;;;;;;33.40;nan;93818.59;5030973;28;20671;-90
2022/06/01 11:31:44;;;;;;;6.00;1.58;;;;;;;34.13;nan;93817.31;5017134;28;20202;-90
2022/06/01 11:34:45;;;;;;;3.08;1.00;;;;;;;33.51;nan;93814.78;5011768;28;20207;-87
2022/06/01 11:37:40;;;;;;;1.90;0.85;;;;;;;32.34;nan;93823.00;5002661;28;20253;-88
2022/06/01 11:40:51;;;;;;;2.45;0.70;;;;;;;34.86;nan;93814.31;5026972;28;20344;-92
2022/06/01 11:43:44;;;;;;;0.80;0.80;;;;;;;34.25;nan;93820.00;5015140;28;20217;-86
2022/06/01 11:46:51;;;;;;;1.83;0.85;;;;;;;36.61;nan;93816.34;5012810;28;20233;-91
2022/06/01 11:49:39;;;;;;;5.22;1.10;;;;;;;34.58;nan;93809.09;5025560;28;20202;-90
2022/06/01 11:52:45;;;;;;;2.15;0.93;;;;;;;35.27;nan;93813.38;5003513;28;20213;-91
2022/06/01 11:55:35;;;;;;;1.92;0.73;;;;;;;36.95;nan;93811.72;5009742;28;20210;-84
2022/06/01 11:58:40;;;;;;;2.25;1.00;;;;;;;36.63;nan;93818.50;5013131;28;20565;-86
2022/06/01 12:01:58;;;;;;;1.58;0.90;;;;;;;37.73;nan;93813.59;5017315;28;20233;-91
2022/06/01 12:05:05;;;;;;;1.65;0.90;;;;;;;36.10;nan;93817.09;5000804;28;20704;-86
2022/06/01 12:08:41;;;;;;;3.92;0.80;;;;;;;36.29;nan;93815.13;4996540;28;20281;-90
2022/06/01 12:11:42;;;;;;;1.42;0.85;;;;;;;35.50;nan;93817.16;5000681;28;20326;-91
2022/06/01 12:14:31;;;;;;;2.00;1.10;;;;;;;36.18;nan;93802.28;5005946;28;20246;-89
2022/06/01 12:17:15;;;;;;;1.80;0.90;;;;;;;36.70;nan;93805.19;4983798;28;20683;-90
2022/06/01 12:20:20;;;;;;;4.72;1.10;;;;;;;36.36;nan;93793.00;5008807;28;20191;-91
2022/06/01 12:29:51;;;;;;;3.97;1.08;;;;;;;35.96;nan;93797.06;5005314;28;20341;-87
2022/06/01 12:33:00;;;;;;;3.92;1.02;;;;;;;36.99;nan;93799.91;4983445;28;20294;-90
2022/06/01 12:35:49;;;;;;;2.22;1.10;;;;;;;36.75;nan;93777.28;5013248;28;20264;-92
2022/06/01 12:38:38;;;;;;;0.85;0.82;;;;;;;37.24;nan;93785.97;5008335;28;20270;-91
2022/06/01 12:41:27;;;;;;;3.00;0.85;;;;;;;35.97;nan;93786.81;4996001;28;20195;-88
2022/06/01 12:44:12;;;;;;;2.92;0.95;;;;;;;33.57;nan;93787.81;4966953;28;20687;-90
2022/06/01 12:46:57;;;;;;;1.35;1.00;;;;;;;34.39;nan;93776.03;4996183;28;20275;-87
2022/06/01 12:49:45;;;;;;;1.73;1.00;;;;;;;34.89;nan;93774.94;4981512;28;20210;-89
2022/06/01 12:52:29;;;;;;;5.78;1.30;;;;;;;34.64;nan;93776.22;4990652;28;20234;-88
2022/06/01 12:55:21;;;;;;;2.10;0.80;;;;;;;33.65;nan;93781.84;5009031;28;20630;-84
2022/06/01 12:58:20;;;;;;;1.42;0.82;;;;;;;33.66;nan;93783.28;5009411;28;20195;-87
2022/06/01 13:01:04;;;;;;;3.63;1.10;;;;;;;35.49;nan;93780.75;5003086;28;20380;-89
2022/06/01 13:03:51;;;;;;;2.63;1.10;;;;;;;35.57;nan;93786.38;4997191;28;20206;-88
2022/06/01 13:06:39;;;;;;;3.55;1.05;;;;;;;35.57;nan;93774.72;5013913;28;20273;-89
2022/06/01 13:09:32;;;;;;;3.00;1.33;;;;;;;34.70;nan;93771.00;5016011;28;20360;-90
2022/06/01 13:12:18;;;;;;;1.48;0.98;;;;;;;33.16;nan;93776.84;4998540;28;20242;-87
2022/06/01 13:15:29;;;;;;;3.10;0.90;;;;;;;31.89;nan;93775.72;5020151;28;20551;-86
2022/06/01 13:18:20;;;;;;;2.22;1.10;;;;;;;33.18;nan;93773.94;5021069;28;20195;-87
2022/06/01 13:21:34;;;;;;;8.98;1.13;;;;;;;33.41;nan;93770.66;5009467;28;20727;-89
2022/06/01 13:24:21;;;;;;;1.98;1.20;;;;;;;32.87;nan;93775.88;4987934;28;20559;-91
2022/06/01 13:27:06;;;;;;;2.13;0.90;;;;;;;32.88;nan;93771.53;5010241;28;20253;-91
2022/06/01 13:29:58;;;;;;;5.38;1.10;;;;;;;32.96;nan;93771.38;5005986;28;20628;-88
2022/06/01 13:32:46;;;;;;;2.63;1.10;;;;;;;32.63;nan;93779.13;4990257;28;20251;-91
2022/06/01 13:35:32;;;;;;;2.10;0.90;;;;;;;32.68;nan;93771.81;5005827;28;20293;-89
2022/06/01 13:38:23;;;;;;;4.63;1.20;;;;;;;31.46;nan;93779.06;5010254;28;20271;-91
2022/06/01 13:41:13;;;;;;;4.45;1.15;;;;;;;32.28;nan;93768.00;4994451;28;20226;-90
2022/06/01 13:43:58;;;;;;;1.42;1.10;;;;;;;32.14;nan;93776.91;5009057;28;20194;-90
2022/06/01 13:46:47;;;;;;;2.95;1.33;;;;;;;31.51;nan;93768.88;5010253;28;20282;-90
2022/06/01 13:49:31;;;;;;;1.92;1.05;;;;;;;30.14;nan;93782.88;5010789;28;20202;-89
2022/06/01 13:52:15;;;;;;;2.70;1.17;;;;;;;30.37;nan;93782.75;5016996;28;20223;-86
2022/06/01 13:55:19;;;;;;;1.38;1.00;;;;;;;31.45;nan;93782.69;5024415;28;20247;-91
2022/06/01 13:58:06;;;;;;;7.32;1.52;;;;;;;30.54;nan;93781.97;5007979;28;20271;-91
2022/06/01 14:01:05;;;;;;;2.53;1.10;;;;;;;30.35;nan;93785.66;4994909;28;20235;-90
2022/06/01 14:03:55;;;;;;;1.90;1.00;;;;;;;31.88;nan;93782.97;5017534;28;20217;-92
2022/06/01 14:06:44;;;;;;;1.83;1.00;;;;;;;29.75;nan;93778.66;4993386;28;20238;-92